04/17 04:00 更新

弱い雨が降っている
2,000ftに雲が少し
3,000ftに雲が多い
5,000ftに雲が多い

地上風: 160°3kt

上空風(熊谷ウインドプロファイラ)
13,000ft: Array
10,000ft: Array
 7,000ft: Array
 3,000ft: Array

地上: 13℃
上空: 未計測℃

日没: 18:16

実況天気図


予想天気図


RJTJ 161900Z 16003KT 9999 -SHRA FEW020 BKN030 BKN050 13/11 Q1022 RMK 1CU020 5CU030 7SC050 A3020=

GPV気象予報
気象庁
日本気象協会

玉淀ダム放流量(1,000m3/sを超えた7時間後にDZ冠水)
太郎衛門橋テレメータ水位(11mでDZ冠水)

skydive.jp